Time;durP1;ratioP1;P1;durP2;ratioP2;P2;SDS_P1;SDS_P2;PMS_P1;PMS_P2;Temp;Humidity;BMP_temperature;BMP_pressure;BME280_temperature;BME280_humidity;BME280_pressure;Samples;Min_cycle;Max_cycle;Signal;HPM_P1;HPM_P2
2021/05/01 00:01:18;;;;;;;10.52;7.78;;;;;;;10.23;93.72;100884.69;5022121;28;20458;-76
2021/05/01 00:03:44;;;;;;;12.82;8.77;;;;;;;10.35;93.10;100873.88;5026033;28;20399;-74
2021/05/01 00:06:09;;;;;;;10.70;7.88;;;;;;;10.46;92.93;100880.28;5022475;28;20040;-78
2021/05/01 00:08:35;;;;;;;12.30;8.23;;;;;;;10.37;93.28;100867.00;5032258;28;20433;-77
2021/05/01 00:11:02;;;;;;;12.48;7.68;;;;;;;10.42;93.27;100874.81;5026146;28;20029;-78
2021/05/01 00:13:29;;;;;;;11.25;7.97;;;;;;;10.47;92.42;100874.53;5033258;28;20143;-78
2021/05/01 00:15:55;;;;;;;13.27;8.07;;;;;;;10.45;92.10;100870.66;5030010;28;20041;-77
2021/05/01 00:18:20;;;;;;;12.18;8.38;;;;;;;10.14;92.69;100879.50;5025217;28;20021;-77
2021/05/01 00:20:46;;;;;;;11.00;8.00;;;;;;;10.40;92.47;100866.31;5032167;28;20100;-75
2021/05/01 00:23:12;;;;;;;14.25;8.35;;;;;;;10.13;92.08;100867.16;5029276;28;20116;-78
2021/05/01 00:25:37;;;;;;;12.07;7.85;;;;;;;10.55;90.66;100867.44;5029325;28;20025;-77
2021/05/01 00:28:03;;;;;;;12.77;8.20;;;;;;;10.39;90.96;100863.97;5026201;28;20513;-78
2021/05/01 00:30:29;;;;;;;12.65;7.90;;;;;;;10.38;91.11;100873.16;5024258;28;20038;-76
2021/05/01 00:32:57;;;;;;;13.23;8.75;;;;;;;10.10;92.81;100872.47;5033297;28;20390;-77
2021/05/01 00:35:22;;;;;;;13.57;8.40;;;;;;;10.06;91.72;100866.97;5028901;28;20022;-77
2021/05/01 00:37:48;;;;;;;12.45;8.02;;;;;;;10.19;91.78;100867.69;5007668;28;20087;-76
2021/05/01 00:40:14;;;;;;;13.15;8.40;;;;;;;10.17;92.18;100869.94;5030271;28;20385;-78
2021/05/01 00:42:40;;;;;;;14.75;8.30;;;;;;;10.43;90.51;100870.97;5025569;28;20044;-77
2021/05/01 00:45:06;;;;;;;12.52;8.30;;;;;;;10.43;90.25;100865.59;5028128;28;20030;-74
2021/05/01 00:47:32;;;;;;;11.90;7.95;;;;;;;10.38;90.63;100857.78;4993716;28;20434;-76
2021/05/01 00:49:57;;;;;;;13.07;8.60;;;;;;;10.54;89.96;100869.34;5031875;28;20018;-77
2021/05/01 00:52:23;;;;;;;13.55;8.90;;;;;;;10.49;89.84;100863.44;5031319;28;20155;-75
2021/05/01 00:54:49;;;;;;;12.13;8.63;;;;;;;10.48;89.91;100862.66;5024244;28;20048;-78
2021/05/01 00:57:14;;;;;;;16.10;8.73;;;;;;;10.29;90.63;100857.19;5029335;28;20185;-75
2021/05/01 00:59:40;;;;;;;14.82;8.70;;;;;;;10.32;90.71;100864.56;5029304;28;20096;-78
2021/05/01 01:02:06;;;;;;;12.88;8.32;;;;;;;10.32;90.82;100859.19;5030618;28;20040;-75
2021/05/01 01:04:31;;;;;;;13.18;8.52;;;;;;;10.22;91.02;100850.84;5033409;28;20029;-77
2021/05/01 01:06:57;;;;;;;13.63;9.02;;;;;;;10.31;91.12;100854.16;5013116;28;20049;-76
2021/05/01 01:09:22;;;;;;;14.48;9.55;;;;;;;10.23;90.09;100852.41;5024450;28;20040;-76
2021/05/01 01:11:48;;;;;;;14.35;8.82;;;;;;;10.01;91.98;100848.38;5019572;28;20041;-77
2021/05/01 01:14:14;;;;;;;13.05;8.70;;;;;;;10.24;91.59;100846.66;5027083;28;20047;-75
2021/05/01 01:16:43;;;;;;;12.50;8.43;;;;;;;10.52;89.68;100849.28;5017356;28;20044;-77
2021/05/01 01:19:09;;;;;;;11.48;8.27;;;;;;;10.28;90.42;100846.78;5005706;28;20036;-77
2021/05/01 01:21:48;;;;;;;13.50;8.55;;;;;;;10.28;90.78;100847.53;5023242;28;20029;-77
2021/05/01 01:24:14;;;;;;;15.15;9.25;;;;;;;10.21;90.34;100847.38;5030440;28;20029;-77
2021/05/01 01:26:41;;;;;;;13.38;8.98;;;;;;;10.21;90.57;100841.22;5022788;28;20033;-76
2021/05/01 01:29:07;;;;;;;13.90;8.32;;;;;;;10.09;91.10;100838.56;5017139;28;20100;-77
2021/05/01 01:31:33;;;;;;;13.60;8.73;;;;;;;10.07;91.22;100840.81;5023830;28;20065;-77
2021/05/01 01:34:00;;;;;;;15.90;8.98;;;;;;;10.16;90.79;100844.97;5022277;28;20072;-77
2021/05/01 01:36:25;;;;;;;13.93;8.43;;;;;;;9.93;91.95;100849.31;5015395;28;20095;-75
2021/05/01 01:38:51;;;;;;;14.52;8.48;;;;;;;9.94;92.87;100840.13;5002859;28;20021;-77
2021/05/01 01:41:17;;;;;;;10.43;7.93;;;;;;;10.27;91.09;100834.44;5020654;28;20538;-77
2021/05/01 01:43:42;;;;;;;11.57;8.45;;;;;;;10.06;91.56;100842.75;5027873;28;20119;-76
2021/05/01 01:46:08;;;;;;;14.32;8.30;;;;;;;10.12;91.46;100833.31;5018918;28;20047;-77
2021/05/01 01:48:33;;;;;;;13.27;8.93;;;;;;;10.08;92.11;100835.09;5015808;28;20159;-77
2021/05/01 01:50:59;;;;;;;13.65;8.88;;;;;;;10.25;90.55;100831.31;5005355;28;20128;-77
2021/05/01 01:53:24;;;;;;;13.70;8.30;;;;;;;10.23;90.98;100834.34;5019625;28;20489;-77
2021/05/01 01:55:51;;;;;;;12.93;8.95;;;;;;;10.34;90.06;100824.63;5031311;28;20036;-77
2021/05/01 01:58:21;;;;;;;12.48;8.65;;;;;;;10.36;90.42;100827.75;5007627;28;20401;-77
2021/05/01 02:00:47;;;;;;;14.68;9.32;;;;;;;10.27;90.49;100834.44;5009003;28;20026;-77
2021/05/01 02:03:14;;;;;;;16.00;9.27;;;;;;;10.29;90.37;100832.97;5021647;28;20029;-77
2021/05/01 02:05:41;;;;;;;14.73;9.20;;;;;;;10.38;90.54;100833.56;5028753;28;20033;-77
2021/05/01 02:08:08;;;;;;;14.32;9.00;;;;;;;10.08;91.07;100832.41;5028805;28;20029;-77
2021/05/01 02:10:33;;;;;;;14.82;9.20;;;;;;;9.98;92.54;100828.34;5023629;28;20033;-76
2021/05/01 02:12:59;;;;;;;13.90;8.90;;;;;;;10.11;91.79;100823.66;5027957;28;20099;-76
2021/05/01 02:15:25;;;;;;;12.50;8.13;;;;;;;10.03;92.16;100830.75;5024498;28;20041;-77
2021/05/01 02:17:53;;;;;;;13.98;8.77;;;;;;;10.29;90.93;100835.66;5030351;28;20043;-77
2021/05/01 02:20:22;;;;;;;14.52;8.50;;;;;;;10.30;90.75;100834.53;5023183;28;20057;-77
2021/05/01 02:22:48;;;;;;;14.30;8.95;;;;;;;10.38;90.50;100833.56;5022270;28;20087;-77
2021/05/01 02:25:13;;;;;;;17.25;9.70;;;;;;;10.35;90.48;100826.19;5026737;28;20037;-76
2021/05/01 02:27:40;;;;;;;14.45;9.25;;;;;;;10.27;90.73;100829.84;5006753;28;20106;-77
2021/05/01 02:30:12;;;;;;;16.55;9.20;;;;;;;10.19;91.12;100820.03;5027113;28;20025;-76
2021/05/01 02:32:38;;;;;;;16.63;9.13;;;;;;;9.98;92.31;100830.25;5034408;28;20035;-76
2021/05/01 02:35:06;;;;;;;15.48;9.23;;;;;;;9.82;93.58;100837.50;5031707;28;20029;-77
2021/05/01 02:37:32;;;;;;;14.80;8.75;;;;;;;10.12;92.72;100827.16;5024533;28;20721;-77
2021/05/01 02:39:57;;;;;;;13.63;8.55;;;;;;;10.23;91.55;100826.28;5033932;28;20038;-77
2021/05/01 02:42:23;;;;;;;13.60;9.10;;;;;;;10.29;91.09;100827.59;5034461;28;20237;-77
2021/05/01 02:44:49;;;;;;;18.27;9.68;;;;;;;10.40;90.59;100822.44;5031076;28;20056;-77
2021/05/01 02:47:17;;;;;;;14.63;9.60;;;;;;;10.29;90.43;100814.13;5032865;28;20034;-77
2021/05/01 02:49:43;;;;;;;16.70;9.48;;;;;;;10.11;90.67;100812.91;5033092;28;20046;-77
2021/05/01 02:52:08;;;;;;;14.40;9.02;;;;;;;10.17;91.07;100803.44;5032954;28;20402;-77
2021/05/01 02:54:34;;;;;;;14.80;9.50;;;;;;;10.20;90.98;100807.38;5025590;28;20080;-77
2021/05/01 02:56:59;;;;;;;16.65;9.95;;;;;;;10.27;90.47;100802.94;5023061;28;20087;-76
2021/05/01 02:59:25;;;;;;;16.08;10.05;;;;;;;10.30;90.26;100798.78;5017995;28;20029;-77
2021/05/01 03:01:50;;;;;;;17.88;9.48;;;;;;;10.25;90.81;100796.31;5033933;28;20057;-77
2021/05/01 03:04:16;;;;;;;12.77;8.50;;;;;;;9.86;92.32;100788.06;5013555;28;20064;-77
2021/05/01 03:06:41;;;;;;;16.08;9.57;;;;;;;9.89;92.64;100800.03;5015596;28;20083;-76
2021/05/01 03:09:07;;;;;;;12.90;8.13;;;;;;;9.78;93.30;100791.69;5022559;28;20030;-77
2021/05/01 03:11:32;;;;;;;16.27;9.18;;;;;;;9.80;93.25;100800.19;5024396;28;20041;-77
2021/05/01 03:13:58;;;;;;;16.45;9.60;;;;;;;9.59;93.75;100788.88;5006556;28;20026;-77
2021/05/01 03:16:23;;;;;;;15.48;9.57;;;;;;;9.70;94.31;100789.94;5029612;28;20382;-77
2021/05/01 03:18:49;;;;;;;15.40;8.98;;;;;;;9.75;94.07;100789.72;5011848;28;20580;-78
2021/05/01 03:21:14;;;;;;;16.20;9.25;;;;;;;9.87;92.97;100792.28;5016979;28;20513;-77
2021/05/01 03:23:40;;;;;;;17.90;9.38;;;;;;;9.86;92.56;100792.66;5029392;28;20025;-77
2021/05/01 03:26:06;;;;;;;14.68;9.13;;;;;;;9.91;92.45;100787.03;5009247;28;20061;-77
2021/05/01 03:28:32;;;;;;;17.30;10.20;;;;;;;9.94;92.52;100792.50;5027127;28;20440;-76
2021/05/01 03:30:57;;;;;;;16.10;8.88;;;;;;;9.95;91.60;100779.81;5026692;28;20030;-77
2021/05/01 03:33:25;;;;;;;16.17;9.18;;;;;;;9.27;94.98;100778.41;5010869;28;20605;-77
2021/05/01 03:35:50;;;;;;;14.77;9.25;;;;;;;9.31;96.25;100779.28;5025050;28;20060;-76
2021/05/01 03:38:16;;;;;;;15.32;9.68;;;;;;;9.43;94.47;100780.00;5028035;28;20579;-78
2021/05/01 03:40:41;;;;;;;16.23;9.13;;;;;;;9.33;95.32;100779.72;5028255;28;20061;-77
2021/05/01 03:43:09;;;;;;;16.63;9.55;;;;;;;9.06;95.86;100779.38;5033279;28;20028;-77
2021/05/01 03:45:36;;;;;;;13.63;8.82;;;;;;;9.36;95.91;100782.50;5023856;28;20034;-77
2021/05/01 03:48:01;;;;;;;15.25;9.73;;;;;;;9.42;94.69;100793.78;5027436;28;20390;-77
2021/05/01 03:50:27;;;;;;;17.52;9.77;;;;;;;9.54;93.94;100785.69;5014897;28;20029;-77
2021/05/01 03:52:52;;;;;;;14.68;9.32;;;;;;;9.44;93.43;100786.16;5034385;28;20486;-79
2021/05/01 03:55:18;;;;;;;17.75;10.00;;;;;;;9.21;94.79;100782.47;5029475;28;20092;-78
2021/05/01 03:57:44;;;;;;;12.40;8.70;;;;;;;9.24;95.12;100784.44;5015701;28;20060;-79
2021/05/01 04:00:10;;;;;;;16.63;9.52;;;;;;;9.29;94.73;100786.91;5021450;28;20759;-78
2021/05/01 04:02:36;;;;;;;16.63;10.00;;;;;;;9.50;93.81;100779.41;5017825;28;20030;-77
2021/05/01 04:05:03;;;;;;;19.38;10.18;;;;;;;9.34;93.17;100781.28;5021915;28;20093;-78
2021/05/01 04:07:28;;;;;;;15.70;8.57;;;;;;;9.50;92.87;100790.16;5031489;28;20033;-76
2021/05/01 04:09:54;;;;;;;17.92;9.80;;;;;;;9.28;93.16;100786.13;5012693;28;20078;-76
2021/05/01 04:12:20;;;;;;;15.57;9.00;;;;;;;9.27;93.77;100791.84;5028365;28;20653;-77
2021/05/01 04:14:45;;;;;;;14.57;8.20;;;;;;;9.28;92.37;100793.41;5028393;28;20063;-77
2021/05/01 04:17:11;;;;;;;14.00;8.00;;;;;;;8.91;93.66;100785.47;5022809;28;20033;-76
2021/05/01 04:19:36;;;;;;;14.88;8.50;;;;;;;9.14;93.61;100783.03;5030421;28;20067;-76
2021/05/01 04:22:05;;;;;;;12.93;7.65;;;;;;;9.12;92.78;100781.84;5030722;28;20025;-78
2021/05/01 04:24:32;;;;;;;11.27;7.53;;;;;;;9.44;91.69;100784.28;5010616;28;20143;-77
2021/05/01 04:26:58;;;;;;;12.80;7.95;;;;;;;9.35;90.92;100783.63;5025132;28;20080;-77
2021/05/01 04:29:24;;;;;;;13.00;8.02;;;;;;;9.45;89.95;100782.34;5012731;28;20033;-76
2021/05/01 04:31:49;;;;;;;13.40;8.25;;;;;;;9.46;89.82;100782.03;5013408;28;20041;-76
2021/05/01 04:34:15;;;;;;;13.27;8.15;;;;;;;9.50;88.98;100784.81;4995543;28;20025;-76
2021/05/01 04:36:41;;;;;;;11.85;7.40;;;;;;;9.16;89.33;100785.38;5025798;28;20025;-77
2021/05/01 04:39:09;;;;;;;12.50;7.75;;;;;;;9.31;89.92;100790.81;5030049;28;20030;-77
2021/05/01 04:41:34;;;;;;;12.93;7.78;;;;;;;9.18;90.51;100791.19;5030714;28;20048;-76
2021/05/01 04:44:00;;;;;;;13.75;8.25;;;;;;;9.10;90.38;100798.28;5026399;28;20013;-76
2021/05/01 04:46:26;;;;;;;12.98;7.47;;;;;;;9.34;89.92;100792.03;5030219;28;20032;-76
2021/05/01 04:48:51;;;;;;;11.25;7.57;;;;;;;8.86;91.37;100788.41;5029824;28;20397;-76
2021/05/01 04:51:20;;;;;;;17.45;8.13;;;;;;;9.23;90.00;100786.38;5023779;28;20107;-76
2021/05/01 04:53:45;;;;;;;13.07;8.10;;;;;;;9.48;89.14;100787.84;5025247;28;20087;-76
2021/05/01 04:56:11;;;;;;;11.70;7.68;;;;;;;9.47;88.36;100785.47;5011644;28;20026;-76
2021/05/01 04:58:36;;;;;;;11.63;7.85;;;;;;;9.47;88.66;100794.31;5027260;28;20030;-76
2021/05/01 05:01:02;;;;;;;11.18;7.50;;;;;;;9.43;88.53;100795.34;5024798;28;20033;-75
2021/05/01 05:03:28;;;;;;;14.88;7.78;;;;;;;9.67;88.06;100790.66;5028439;28;20056;-76
2021/05/01 05:05:53;;;;;;;14.93;7.72;;;;;;;9.52;88.21;100787.91;5029471;28;20064;-77
2021/05/01 05:08:19;;;;;;;11.45;7.25;;;;;;;9.34;88.67;100789.34;5027589;28;20048;-77
2021/05/01 05:10:44;;;;;;;11.23;7.20;;;;;;;9.27;89.49;100803.34;5027321;28;20026;-76
2021/05/01 05:13:09;;;;;;;9.88;6.60;;;;;;;9.34;88.64;100800.09;5011266;28;20611;-77
2021/05/01 05:15:35;;;;;;;11.05;7.13;;;;;;;9.51;88.11;100791.72;5027678;28;20048;-77
2021/05/01 05:18:00;;;;;;;11.98;7.45;;;;;;;9.50;87.12;100792.88;5025454;28;20034;-77
2021/05/01 05:20:26;;;;;;;14.45;7.63;;;;;;;9.31;87.64;100800.78;5029435;28;20033;-76
2021/05/01 05:22:51;;;;;;;12.43;7.40;;;;;;;9.20;87.19;100808.53;5027761;28;20037;-77
2021/05/01 05:25:17;;;;;;;12.15;7.47;;;;;;;9.29;89.35;100805.72;5012348;28;20058;-78
2021/05/01 05:27:42;;;;;;;10.93;7.38;;;;;;;9.45;88.55;100798.47;5020209;28;20037;-78
2021/05/01 05:30:08;;;;;;;11.52;7.15;;;;;;;9.72;87.58;100811.09;5034495;28;20045;-78
2021/05/01 05:32:34;;;;;;;13.60;8.18;;;;;;;9.62;87.64;100807.00;5030339;28;20121;-79
2021/05/01 05:34:59;;;;;;;11.68;7.55;;;;;;;9.37;88.07;100810.16;5034623;28;20029;-78
2021/05/01 05:37:25;;;;;;;12.93;7.40;;;;;;;9.76;86.86;100811.97;5025370;28;20474;-77
2021/05/01 05:39:51;;;;;;;11.55;7.07;;;;;;;9.74;87.10;100815.00;5033815;28;20494;-78
2021/05/01 05:42:17;;;;;;;13.95;7.45;;;;;;;9.73;86.40;100813.47;5013146;28;20049;-78
2021/05/01 05:44:48;;;;;;;13.45;7.60;;;;;;;9.69;86.75;100817.19;5021389;28;20072;-77
2021/05/01 05:47:15;;;;;;;12.85;7.53;;;;;;;9.38;87.34;100809.03;5025285;28;20136;-78
2021/05/01 05:49:41;;;;;;;12.43;7.00;;;;;;;9.60;88.12;100811.19;4997022;28;20029;-76
2021/05/01 05:52:06;;;;;;;14.05;7.43;;;;;;;9.94;86.07;100813.22;5025816;28;20040;-77
2021/05/01 05:54:32;;;;;;;12.13;7.50;;;;;;;9.92;86.04;100815.47;5032663;28;20087;-76
2021/05/01 05:56:58;;;;;;;12.45;7.25;;;;;;;9.61;87.17;100820.81;5011460;28;20021;-76
2021/05/01 05:59:24;;;;;;;11.82;7.40;;;;;;;9.75;87.09;100819.28;5019473;28;20447;-76
2021/05/01 06:01:51;;;;;;;13.57;7.75;;;;;;;9.86;87.01;100819.53;5031993;28;20026;-76
2021/05/01 06:04:24;;;;;;;12.35;7.40;;;;;;;9.80;87.43;100815.53;5033200;28;20037;-75
2021/05/01 06:07:13;;;;;;;12.75;7.93;;;;;;;9.87;88.08;100821.13;5033604;28;20489;-76
2021/05/01 06:09:40;;;;;;;13.57;7.45;;;;;;;9.57;87.10;100807.28;5029309;28;20526;-76
2021/05/01 06:12:10;;;;;;;15.50;7.75;;;;;;;9.72;87.49;100816.47;5029978;28;20108;-77
2021/05/01 06:14:42;;;;;;;13.57;7.45;;;;;;;9.50;88.53;100811.69;5030637;28;20128;-76
2021/05/01 06:17:11;;;;;;;13.27;7.32;;;;;;;9.49;89.95;100810.09;5036831;28;20068;-76
2021/05/01 06:19:38;;;;;;;11.98;7.63;;;;;;;9.27;88.88;100814.09;5039227;28;20034;-76
2021/05/01 06:22:04;;;;;;;15.00;7.85;;;;;;;9.60;89.12;100811.19;5022488;28;20045;-76
2021/05/01 06:24:30;;;;;;;13.52;8.02;;;;;;;9.91;87.19;100806.63;5018864;28;20025;-77
2021/05/01 06:26:58;;;;;;;14.52;8.00;;;;;;;10.12;86.40;100811.78;5020292;28;20037;-76
2021/05/01 06:29:28;;;;;;;12.77;8.10;;;;;;;9.96;86.37;100805.59;5012768;28;20060;-76
2021/05/01 06:31:54;;;;;;;15.02;8.40;;;;;;;10.13;86.37;100813.34;5024184;28;20475;-75
2021/05/01 06:34:19;;;;;;;13.02;7.93;;;;;;;9.68;88.08;100802.16;5027388;28;20030;-76
2021/05/01 06:36:45;;;;;;;12.77;8.10;;;;;;;9.88;88.05;100809.22;5028344;28;20037;-76
2021/05/01 06:39:13;;;;;;;12.18;7.50;;;;;;;9.79;88.16;100809.38;5028498;28;20033;-76
2021/05/01 06:41:52;;;;;;;13.52;7.70;;;;;;;9.87;88.38;100811.13;5031122;28;20171;-76
2021/05/01 06:44:35;;;;;;;15.30;8.18;;;;;;;9.68;88.80;100805.63;5031417;28;20111;-75
2021/05/01 06:47:00;;;;;;;11.65;7.68;;;;;;;9.86;87.96;100814.16;5024672;28;20355;-76
2021/05/01 06:49:34;;;;;;;14.73;7.90;;;;;;;9.72;88.14;100811.09;5030505;28;20063;-77
2021/05/01 06:52:03;;;;;;;13.45;7.03;;;;;;;9.99;87.89;100802.19;5027343;28;20025;-77
2021/05/01 06:54:30;;;;;;;10.98;6.80;;;;;;;9.93;89.10;100798.97;5031005;28;20022;-76
2021/05/01 06:56:56;;;;;;;14.65;7.82;;;;;;;9.91;89.88;100805.84;5024493;28;20026;-77
2021/05/01 06:59:23;;;;;;;15.32;7.68;;;;;;;10.02;88.51;100796.13;5027397;28;20032;-77
2021/05/01 07:01:49;;;;;;;11.57;7.00;;;;;;;10.04;87.84;100807.34;5030397;28;20486;-76
2021/05/01 07:04:16;;;;;;;15.27;8.05;;;;;;;10.20;87.25;100800.06;5021037;28;20121;-75
2021/05/01 07:06:43;;;;;;;13.93;7.25;;;;;;;10.12;87.39;100806.41;5023123;28;20041;-76
2021/05/01 07:09:09;;;;;;;13.80;7.47;;;;;;;10.32;87.64;100808.03;5008081;28;20037;-77
2021/05/01 07:11:34;;;;;;;13.70;7.10;;;;;;;10.22;87.37;100808.56;5032301;28;20038;-76
2021/05/01 07:14:01;;;;;;;12.23;6.90;;;;;;;10.11;87.20;100809.44;5030352;28;20117;-75
2021/05/01 07:16:28;;;;;;;13.43;7.20;;;;;;;10.12;87.69;100805.63;5029820;28;20048;-76
2021/05/01 07:18:55;;;;;;;12.43;7.18;;;;;;;10.21;86.94;100815.09;5029607;28;20025;-76
2021/05/01 07:21:21;;;;;;;12.43;7.25;;;;;;;10.42;86.43;100812.91;5030973;28;20036;-76
2021/05/01 07:23:47;;;;;;;11.93;7.13;;;;;;;10.42;85.22;100826.34;5027065;28;20029;-76
2021/05/01 07:26:18;;;;;;;12.13;7.00;;;;;;;10.35;84.83;100818.13;5025563;28;20055;-76
2021/05/01 07:28:46;;;;;;;;;;;;;;;10.48;84.43;100819.56;5014173;28;21878;-75
2021/05/01 07:31:18;;;;;;;12.52;7.30;;;;;;;10.62;84.30;100822.59;5025376;28;19963;-76
2021/05/01 07:33:50;;;;;;;11.38;7.32;;;;;;;10.74;83.85;100821.72;5028698;28;20033;-77
2021/05/01 07:36:20;;;;;;;14.23;7.65;;;;;;;10.39;84.91;100824.38;5013955;28;20108;-76
2021/05/01 07:38:46;;;;;;;11.27;7.25;;;;;;;10.37;85.34;100826.63;5023904;28;20049;-76
2021/05/01 07:41:14;;;;;;;10.48;7.10;;;;;;;10.48;84.37;100824.19;5026389;28;20014;-76
2021/05/01 07:43:48;;;;;;;11.75;7.00;;;;;;;10.84;83.55;100830.00;5025393;28;20103;-76
2021/05/01 07:46:15;;;;;;;12.63;7.03;;;;;;;10.94;83.33;100828.69;5007260;28;20073;-76
2021/05/01 07:48:42;;;;;;;11.45;7.55;;;;;;;10.76;83.76;100827.53;5028233;28;20708;-76
2021/05/01 07:51:08;;;;;;;11.25;6.93;;;;;;;10.31;86.16;100827.22;5031029;28;20030;-76
2021/05/01 07:53:34;;;;;;;11.60;7.28;;;;;;;10.83;84.61;100827.69;5012139;28;20045;-76
2021/05/01 07:56:00;;;;;;;13.85;7.35;;;;;;;10.41;83.24;100818.63;5021344;28;20052;-76
2021/05/01 07:58:26;;;;;;;12.90;7.22;;;;;;;10.70;84.38;100829.69;5015542;28;20506;-76
2021/05/01 08:00:51;;;;;;;12.82;7.30;;;;;;;10.71;83.96;100825.88;5024177;28;20079;-76
2021/05/01 08:03:17;;;;;;;11.52;7.05;;;;;;;11.09;82.53;100817.06;5028233;28;20025;-76
2021/05/01 08:05:42;;;;;;;11.10;7.50;;;;;;;11.04;81.58;100819.25;5026939;28;20379;-76
2021/05/01 08:08:08;;;;;;;9.68;7.05;;;;;;;11.13;82.83;100830.63;5027124;28;20033;-76
2021/05/01 08:10:33;;;;;;;10.30;6.65;;;;;;;10.88;83.80;100822.00;5024026;28;20483;-76
2021/05/01 08:12:59;;;;;;;12.35;7.60;;;;;;;11.28;82.83;100824.38;5009824;28;20013;-76
2021/05/01 08:15:28;;;;;;;11.10;7.43;;;;;;;11.45;80.89;100818.56;5025773;28;20038;-76
2021/05/01 08:17:54;;;;;;;14.38;7.68;;;;;;;11.21;81.38;100821.53;5027469;28;20549;-76
2021/05/01 08:20:19;;;;;;;13.30;7.45;;;;;;;11.60;81.45;100812.28;5028430;28;20026;-76
2021/05/01 08:22:45;;;;;;;9.63;6.82;;;;;;;11.89;81.21;100810.91;5007509;28;20123;-75
2021/05/01 08:25:12;;;;;;;12.40;7.30;;;;;;;11.47;80.31;100810.91;5030466;28;20025;-76
2021/05/01 08:27:38;;;;;;;13.15;7.00;;;;;;;11.51;80.88;100814.44;5029128;28;20120;-77
2021/05/01 08:30:06;;;;;;;11.77;7.05;;;;;;;11.37;81.60;100806.06;5027913;28;20036;-77
2021/05/01 08:32:32;;;;;;;12.10;7.45;;;;;;;11.66;81.48;100802.81;5011172;28;20033;-76
2021/05/01 08:34:57;;;;;;;11.48;7.05;;;;;;;11.96;80.11;100798.34;5028473;28;20033;-76
2021/05/01 08:37:23;;;;;;;13.30;7.72;;;;;;;12.08;77.11;100786.59;5027804;28;20037;-76
2021/05/01 08:39:49;;;;;;;15.00;7.47;;;;;;;12.16;77.86;100793.63;5026266;28;20038;-76
2021/05/01 08:42:16;;;;;;;10.88;6.57;;;;;;;12.43;76.58;100787.91;5008006;28;20402;-76
2021/05/01 08:44:41;;;;;;;11.50;7.10;;;;;;;12.64;76.03;100790.91;5009259;28;20056;-76
2021/05/01 08:47:07;;;;;;;12.02;7.15;;;;;;;13.10;74.98;100788.06;5026999;28;20776;-77
2021/05/01 08:49:32;;;;;;;11.93;6.93;;;;;;;13.32;74.67;100781.75;5025702;28;20032;-77
2021/05/01 08:51:58;;;;;;;10.90;6.93;;;;;;;12.72;76.26;100780.22;5001936;28;20501;-77
2021/05/01 08:54:44;;;;;;;10.15;6.78;;;;;;;13.00;76.48;100775.94;5025646;28;20025;-76
2021/05/01 08:57:42;;;;;;;11.68;7.10;;;;;;;13.22;71.91;100775.06;4962887;28;20070;-77
2021/05/01 09:00:08;;;;;;;10.00;6.82;;;;;;;12.86;73.26;100777.69;4945325;28;20053;-76
2021/05/01 09:02:35;;;;;;;11.95;7.55;;;;;;;13.66;72.47;100777.88;4952556;28;20792;-77
2021/05/01 09:05:03;;;;;;;10.45;6.32;;;;;;;14.05;69.46;100772.81;4968639;28;20053;-77
2021/05/01 09:07:29;;;;;;;10.85;6.35;;;;;;;14.42;69.85;100762.63;4948984;28;20688;-78
2021/05/01 09:09:55;;;;;;;10.32;6.35;;;;;;;14.69;67.21;100768.63;4971359;28;20043;-78
2021/05/01 09:12:45;;;;;;;9.30;6.22;;;;;;;14.99;64.57;100780.00;4968806;28;20570;-78
2021/05/01 09:15:18;;;;;;;8.15;5.57;;;;;;;15.28;63.25;100773.50;4980802;28;20507;-78
2021/05/01 09:17:45;;;;;;;9.95;6.13;;;;;;;14.80;64.89;100772.16;4966741;28;20039;-78
2021/05/01 09:20:16;;;;;;;10.23;6.43;;;;;;;14.75;64.23;100772.53;4968632;28;20039;-78
2021/05/01 09:22:53;;;;;;;10.13;5.78;;;;;;;14.76;65.67;100779.50;4970974;28;20061;-78
2021/05/01 09:25:19;;;;;;;11.32;6.38;;;;;;;14.48;64.00;100775.47;4952351;28;20039;-78
2021/05/01 09:28:06;;;;;;;6.80;5.57;;;;;;;13.51;68.13;100770.75;4963058;28;20057;-77
2021/05/01 09:30:35;;;;;;;8.93;5.45;;;;;;;14.22;65.68;100767.53;4968585;28;20038;-77
2021/05/01 09:33:38;;;;;;;9.27;5.32;;;;;;;14.19;61.26;100770.97;4968080;28;20038;-76
2021/05/01 09:36:07;;;;;;;8.40;6.03;;;;;;;14.66;60.40;100774.78;4949107;29;20508;-78
2021/05/01 09:38:33;;;;;;;11.40;5.70;;;;;;;13.98;63.58;100770.00;5017581;28;20068;-78
2021/05/01 09:41:06;;;;;;;8.07;5.80;;;;;;;14.51;64.38;100765.03;5029277;28;20481;-78
2021/05/01 09:43:32;;;;;;;9.85;5.90;;;;;;;14.53;65.09;100760.00;5031312;28;20393;-77
2021/05/01 09:45:57;;;;;;;9.18;5.88;;;;;;;15.38;65.39;100754.56;5030235;28;20040;-79
2021/05/01 09:48:23;;;;;;;10.45;5.43;;;;;;;15.58;59.27;100757.69;5027547;28;20041;-76
2021/05/01 09:51:02;;;;;;;7.50;5.32;;;;;;;16.23;58.56;100754.63;5030447;28;20026;-76
2021/05/01 09:53:28;;;;;;;10.75;5.40;;;;;;;16.51;55.97;100756.56;5019170;28;20558;-76
2021/05/01 09:55:55;;;;;;;6.40;4.70;;;;;;;16.42;56.44;100756.16;5017642;28;20033;-76
2021/05/01 09:58:27;;;;;;;9.07;4.88;;;;;;;16.37;57.72;100756.56;4995411;28;20033;-77
2021/05/01 10:01:09;;;;;;;6.07;4.90;;;;;;;16.22;56.93;100753.84;5026376;28;20494;-76
2021/05/01 10:03:34;;;;;;;8.13;5.35;;;;;;;15.89;56.03;100759.69;5031703;28;20048;-76
2021/05/01 10:06:00;;;;;;;7.47;4.95;;;;;;;15.87;55.93;100761.25;5020361;28;20041;-77
2021/05/01 10:08:31;;;;;;;7.78;5.00;;;;;;;15.92;57.15;100763.56;5026666;28;20516;-78
2021/05/01 10:11:06;;;;;;;6.85;5.18;;;;;;;16.36;58.86;100750.34;5023897;28;20030;-78
2021/05/01 10:13:34;;;;;;;7.00;4.90;;;;;;;15.74;57.07;100751.91;5026165;28;20553;-77
2021/05/01 10:16:06;;;;;;;8.73;5.20;;;;;;;15.96;55.79;100756.97;5027829;28;20060;-78
2021/05/01 10:18:31;;;;;;;7.38;4.50;;;;;;;15.93;57.50;100744.16;5030242;28;20079;-77
2021/05/01 10:20:57;;;;;;;5.55;4.55;;;;;;;16.40;58.81;100734.00;5028680;28;20110;-78
2021/05/01 10:23:23;;;;;;;8.45;5.38;;;;;;;17.32;55.39;100726.28;5027275;28;20021;-78
2021/05/01 10:25:49;;;;;;;7.88;5.30;;;;;;;17.75;54.71;100724.88;5028573;28;20619;-77
2021/05/01 10:28:18;;;;;;;7.05;5.05;;;;;;;17.11;53.84;100713.59;5034252;28;20050;-77
2021/05/01 10:30:48;;;;;;;7.40;5.05;;;;;;;17.65;52.72;100718.31;5028689;28;20069;-77
2021/05/01 10:33:33;;;;;;;7.20;5.43;;;;;;;17.77;51.40;100711.59;5027203;28;20486;-78
2021/05/01 10:36:04;;;;;;;7.60;4.57;;;;;;;17.93;52.31;100704.47;5026459;28;20045;-77
2021/05/01 10:38:31;;;;;;;6.88;4.50;;;;;;;17.98;51.56;100701.28;5029672;28;20033;-77
2021/05/01 10:40:59;;;;;;;7.53;4.35;;;;;;;18.41;52.38;100689.94;5020641;28;20052;-78
2021/05/01 10:43:27;;;;;;;5.60;4.50;;;;;;;18.79;51.40;100705.13;5025469;28;20029;-78
2021/05/01 10:46:06;;;;;;;8.57;4.45;;;;;;;19.08;50.14;100705.53;5031126;28;20435;-77
2021/05/01 10:48:53;;;;;;;5.57;4.07;;;;;;;19.17;50.96;100692.13;5022279;28;20041;-79
2021/05/01 10:51:21;;;;;;;6.47;5.00;;;;;;;19.53;50.20;100693.97;5026175;28;20073;-77
2021/05/01 10:54:04;;;;;;;7.07;4.55;;;;;;;19.81;49.39;100687.25;5028970;28;20052;-75
2021/05/01 10:56:30;;;;;;;5.15;4.53;;;;;;;19.42;47.97;100690.63;5022193;28;20030;-76
2021/05/01 10:58:56;;;;;;;6.15;4.68;;;;;;;18.98;49.66;100696.31;5025327;28;20382;-75
2021/05/01 11:01:33;;;;;;;8.02;4.78;;;;;;;18.55;50.30;100681.63;5013347;28;20158;-75
2021/05/01 11:04:05;;;;;;;7.00;5.10;;;;;;;17.75;50.13;100679.31;5025472;28;20298;-75
2021/05/01 11:06:38;;;;;;;6.75;4.82;;;;;;;17.15;51.79;100687.09;5031969;28;20034;-78
2021/05/01 11:09:06;;;;;;;7.13;4.57;;;;;;;16.57;52.30;100681.56;5029067;28;20656;-77
2021/05/01 11:11:38;;;;;;;6.03;4.53;;;;;;;16.82;53.47;100685.72;5030833;28;20406;-78
2021/05/01 11:14:19;;;;;;;;;;;;;;;16.92;53.42;100689.56;5032317;28;20030;-78
2021/05/01 11:16:50;;;;;;;7.65;4.95;;;;;;;17.04;51.82;100695.34;5008725;28;19928;-76
2021/05/01 11:19:16;;;;;;;8.15;5.32;;;;;;;17.11;52.34;100692.56;5029430;28;20505;-76
2021/05/01 11:21:44;;;;;;;7.10;5.63;;;;;;;16.99;53.46;100693.03;5026205;28;20078;-77
2021/05/01 11:24:12;;;;;;;8.10;5.07;;;;;;;16.97;52.92;100689.16;5031380;28;20038;-76